createdAt,value
2018-04-12T00:01:06.489Z,70.76
2018-04-12T00:03:34.014Z,70.79
2018-04-12T00:06:01.601Z,70.70
2018-04-12T00:08:29.116Z,70.93
2018-04-12T00:10:56.719Z,70.68
2018-04-12T00:13:24.248Z,70.63
2018-04-12T00:15:51.839Z,70.48
2018-04-12T00:18:19.404Z,70.66
2018-04-12T00:20:46.959Z,70.52
2018-04-12T00:23:14.518Z,70.67
2018-04-12T00:25:42.076Z,70.76
2018-04-12T00:28:09.640Z,71.04
2018-04-12T00:30:38.224Z,70.89
2018-04-12T00:33:05.781Z,70.65
2018-04-12T00:35:33.341Z,70.18
2018-04-12T00:38:00.871Z,70.35
2018-04-12T00:40:28.468Z,70.41
2018-04-12T00:42:56.025Z,70.42
2018-04-12T00:45:23.682Z,70.55
2018-04-12T00:47:51.201Z,70.41
2018-04-12T00:50:18.800Z,70.35
2018-04-12T00:52:46.359Z,70.17
2018-04-12T00:55:13.914Z,70.63
2018-04-12T00:57:41.439Z,70.39
2018-04-12T01:00:08.988Z,70.36
2018-04-12T01:02:36.518Z,70.04
2018-04-12T01:05:04.055Z,70.03
2018-04-12T01:07:31.725Z,69.72
2018-04-12T01:09:59.277Z,70.07
2018-04-12T01:12:26.821Z,70.04
2018-04-12T01:14:54.333Z,69.83
2018-04-12T01:17:21.881Z,69.67
2018-04-12T01:19:49.470Z,69.74
2018-04-12T01:22:17.076Z,70.15
2018-04-12T01:24:44.597Z,69.87
2018-04-12T01:27:12.194Z,70.20
2018-04-12T01:29:39.767Z,69.90
2018-04-12T01:32:08.324Z,70.04
2018-04-12T01:34:36.649Z,70.16
2018-04-12T01:37:04.197Z,69.84
2018-04-12T01:39:31.733Z,70.03
2018-04-12T01:41:59.290Z,69.79
2018-04-12T01:44:26.829Z,69.98
2018-04-12T01:46:54.411Z,70.24
2018-04-12T01:49:21.937Z,70.22
2018-04-12T01:51:49.540Z,70.09
2018-04-12T01:54:17.093Z,70.23
2018-04-12T01:56:44.752Z,71.08
2018-04-12T01:59:12.271Z,70.99
2018-04-12T02:01:39.821Z,70.72
2018-04-12T02:04:08.299Z,71.02
2018-04-12T02:06:35.912Z,71.32
2018-04-12T02:09:03.508Z,71.87
2018-04-12T02:11:31.135Z,71.83
2018-04-12T02:13:58.659Z,72.85
2018-04-12T02:16:26.266Z,72.52
2018-04-12T02:18:53.816Z,72.72
2018-04-12T02:21:21.364Z,73.64
2018-04-12T02:23:48.895Z,75.07
2018-04-12T02:26:16.492Z,74.33
2018-04-12T02:28:44.050Z,75.04
2018-04-12T02:31:11.621Z,74.68
2018-04-12T02:33:39.153Z,74.72
2018-04-12T02:36:06.731Z,75.50
2018-04-12T02:38:34.288Z,75.51
2018-04-12T02:41:01.951Z,75.78
2018-04-12T02:43:29.509Z,75.98
2018-04-12T02:45:57.069Z,76.32
2018-04-12T02:48:24.630Z,76.78
2018-04-12T02:50:52.170Z,77.94
2018-04-12T02:53:19.747Z,78.25
2018-04-12T02:55:47.309Z,77.59
2018-04-12T02:58:14.870Z,76.58
2018-04-12T03:00:42.429Z,76.17
2018-04-12T03:03:10.101Z,75.61
2018-04-12T03:05:38.608Z,75.71
2018-04-12T03:08:06.234Z,75.33
2018-04-12T03:10:33.792Z,75.81
2018-04-12T03:13:01.341Z,75.47
2018-04-12T03:15:28.870Z,75.16
2018-04-12T03:17:56.419Z,75.42
2018-04-12T03:20:24.030Z,75.80
2018-04-12T03:22:51.590Z,76.28
2018-04-12T03:25:19.150Z,76.06
2018-04-12T03:27:46.844Z,76.73
2018-04-12T03:30:14.382Z,76.64
2018-04-12T03:32:41.949Z,76.82
2018-04-12T03:35:09.490Z,76.70
2018-04-12T03:37:37.050Z,76.74
2018-04-12T03:40:04.590Z,75.82
2018-04-12T03:42:32.146Z,75.24
2018-04-12T03:44:59.673Z,75.09
2018-04-12T03:47:27.222Z,75.18
2018-04-12T03:49:55.358Z,75.13
2018-04-12T03:52:23.021Z,74.99
2018-04-12T03:54:50.589Z,74.72
2018-04-12T03:57:18.155Z,74.63
2018-04-12T03:59:45.709Z,74.43
2018-04-12T04:02:13.311Z,74.35
2018-04-12T04:04:40.841Z,74.27
2018-04-12T04:07:08.790Z,74.50
2018-04-12T04:09:36.361Z,74.48
2018-04-12T04:12:03.937Z,74.92
2018-04-12T04:14:42.150Z,74.26
2018-04-12T04:17:21.389Z,74.25
2018-04-12T04:20:00.627Z,74.80
2018-04-12T04:22:28.175Z,75.17
2018-04-12T04:24:55.805Z,75.09
2018-04-12T04:27:23.382Z,74.31
2018-04-12T04:29:50.909Z,74.23
2018-04-12T04:32:18.437Z,74.03
2018-04-12T04:34:46.044Z,74.04
2018-04-12T04:37:13.573Z,74.53
2018-04-12T04:39:41.163Z,74.77
2018-04-12T04:42:09.396Z,74.64
2018-04-12T04:44:37.001Z,74.86
2018-04-12T04:47:04.557Z,74.63
2018-04-12T04:49:32.735Z,74.63
2018-04-12T04:52:00.305Z,74.67
2018-04-12T04:54:27.961Z,74.98
2018-04-12T04:56:55.608Z,75.00
2018-04-12T04:59:23.177Z,75.29
2018-04-12T05:01:50.940Z,75.37
2018-04-12T05:04:18.499Z,75.89
2018-04-12T05:06:47.342Z,78.02
2018-04-12T05:09:14.897Z,77.25
2018-04-12T05:11:42.625Z,76.86
2018-04-12T05:14:10.278Z,76.84
2018-04-12T05:16:37.834Z,76.39
2018-04-12T05:19:05.395Z,76.22
2018-04-12T05:21:32.952Z,76.17
2018-04-12T05:24:00.530Z,75.99
2018-04-12T05:26:28.066Z,75.69
2018-04-12T05:28:55.619Z,75.69
2018-04-12T05:31:23.138Z,75.45
2018-04-12T05:33:50.740Z,74.77
2018-04-12T05:36:18.473Z,75.16
2018-04-12T05:38:47.998Z,74.54
2018-04-12T05:41:15.734Z,74.31
2018-04-12T05:43:43.303Z,74.03
2018-04-12T05:46:10.907Z,73.91
2018-04-12T05:48:38.564Z,73.52
2018-04-12T05:51:06.085Z,73.47
2018-04-12T05:53:33.661Z,73.33
2018-04-12T05:56:01.243Z,73.21
2018-04-12T05:58:28.821Z,72.79
2018-04-12T06:00:56.370Z,72.57
2018-04-12T06:03:23.926Z,72.00
2018-04-12T06:05:51.498Z,71.65
2018-04-12T06:08:19.040Z,72.00
2018-04-12T06:10:46.605Z,71.65
2018-04-12T06:13:14.880Z,71.38
2018-04-12T06:15:43.258Z,71.54
2018-04-12T06:18:10.815Z,71.51
2018-04-12T06:20:38.387Z,71.33
2018-04-12T06:23:05.943Z,71.63
2018-04-12T06:25:33.598Z,71.25
2018-04-12T06:28:01.117Z,71.59
2018-04-12T06:30:28.716Z,71.61
2018-04-12T06:32:56.275Z,72.01
2018-04-12T06:35:25.400Z,72.51
2018-04-12T06:37:52.951Z,72.10
2018-04-12T06:40:20.595Z,72.44
2018-04-12T06:42:48.134Z,72.20
2018-04-12T06:45:15.710Z,71.84
2018-04-12T06:47:43.270Z,71.68
2018-04-12T06:50:10.931Z,71.51
2018-04-12T06:52:38.492Z,70.71
2018-04-12T06:55:06.061Z,71.21
2018-04-12T06:57:33.615Z,70.83
2018-04-12T07:00:01.174Z,70.73
2018-04-12T07:02:28.774Z,70.65
2018-04-12T07:04:56.390Z,70.75
2018-04-12T07:07:23.949Z,70.23
2018-04-12T07:09:51.626Z,70.34
2018-04-12T07:12:19.182Z,70.73
2018-04-12T07:14:46.837Z,70.60
2018-04-12T07:17:14.360Z,70.07
2018-04-12T07:19:41.914Z,69.94
2018-04-12T07:22:10.035Z,69.76
2018-04-12T07:24:37.596Z,70.54
2018-04-12T07:27:05.246Z,70.64
2018-04-12T07:29:32.802Z,71.10
2018-04-12T07:32:00.672Z,70.96
2018-04-12T07:34:28.334Z,70.62
2018-04-12T07:36:55.854Z,71.05
2018-04-12T07:39:23.381Z,70.86
2018-04-12T07:41:53.314Z,70.39
2018-04-12T07:44:21.755Z,70.54
2018-04-12T07:46:50.524Z,70.94
2018-04-12T07:49:18.196Z,70.82
2018-04-12T07:51:46.045Z,70.65
2018-04-12T07:54:13.567Z,71.76
2018-04-12T07:56:43.207Z,70.87
2018-04-12T07:59:12.693Z,70.62
2018-04-12T08:01:40.333Z,70.91
2018-04-12T08:04:10.678Z,69.63
2018-04-12T08:06:41.484Z,69.01
2018-04-12T08:09:11.378Z,68.97
2018-04-12T08:11:39.505Z,68.37
2018-04-12T08:14:09.388Z,67.66
2018-04-12T08:16:37.017Z,67.74
2018-04-12T08:19:04.691Z,68.06
2018-04-12T08:21:32.496Z,67.57
2018-04-12T08:24:00.108Z,67.38
2018-04-12T08:26:27.671Z,67.51
2018-04-12T08:28:55.810Z,67.59
2018-04-12T08:31:23.481Z,67.19
2018-04-12T08:33:53.026Z,66.79
2018-04-12T08:36:21.104Z,66.25
2018-04-12T08:38:48.744Z,66.38
2018-04-12T08:41:16.728Z,65.19
2018-04-12T08:43:44.316Z,64.89
2018-04-12T08:46:12.273Z,65.64
2018-04-12T08:48:40.270Z,65.43
2018-04-12T08:51:07.856Z,66.08
2018-04-12T08:53:35.531Z,64.57
2018-04-12T08:56:03.299Z,64.74
2018-04-12T08:58:30.859Z,65.01
2018-04-12T09:00:58.457Z,65.19
2018-04-12T09:03:25.989Z,66.68
2018-04-12T09:05:53.990Z,65.98
2018-04-12T09:08:21.607Z,65.14
2018-04-12T09:10:50.704Z,65.95
2018-04-12T09:13:18.344Z,66.42
2018-04-12T09:15:46.217Z,64.67
2018-04-12T09:18:13.803Z,63.93
2018-04-12T09:20:41.378Z,63.12
2018-04-12T09:23:08.910Z,64.16
2018-04-12T09:25:37.806Z,63.32
2018-04-12T09:28:05.485Z,62.80
2018-04-12T09:30:33.010Z,62.95
2018-04-12T09:33:00.565Z,63.75
2018-04-12T09:35:28.093Z,63.90
2018-04-12T09:37:55.716Z,63.63
2018-04-12T09:40:23.249Z,63.99
2018-04-12T09:42:50.824Z,65.92
2018-04-12T09:45:18.381Z,64.73
2018-04-12T09:47:45.929Z,63.71
2018-04-12T09:50:13.505Z,64.56
2018-04-12T09:52:41.098Z,63.22
2018-04-12T09:55:08.734Z,62.92
2018-04-12T09:57:36.309Z,63.35
2018-04-12T10:00:04.032Z,63.79
2018-04-12T10:02:31.541Z,63.70
2018-04-12T10:05:00.743Z,62.51
2018-04-12T10:07:33.923Z,62.68
2018-04-12T10:10:01.555Z,63.28
2018-04-12T10:12:29.217Z,63.30
2018-04-12T10:14:56.750Z,63.42
2018-04-12T10:17:24.414Z,64.04
2018-04-12T10:19:52.006Z,64.35
2018-04-12T10:22:19.585Z,63.59
2018-04-12T10:24:47.116Z,63.24
2018-04-12T10:27:14.665Z,63.74
2018-04-12T10:29:42.214Z,64.61
2018-04-12T10:32:10.545Z,65.10
2018-04-12T10:34:38.322Z,65.64
2018-04-12T10:37:05.970Z,65.16
2018-04-12T10:39:33.507Z,64.91
2018-04-12T10:42:01.105Z,64.39
2018-04-12T10:44:28.631Z,64.23
2018-04-12T10:46:56.181Z,65.07
2018-04-12T10:49:23.733Z,64.85
2018-04-12T10:51:51.314Z,63.77
2018-04-12T10:54:18.855Z,63.01
2018-04-12T10:56:46.834Z,63.69
2018-04-12T10:59:14.491Z,64.51
2018-04-12T11:01:42.046Z,64.56
2018-04-12T11:04:09.709Z,63.63
2018-04-12T11:06:37.247Z,61.63
2018-04-12T11:09:04.827Z,61.90
2018-04-12T11:11:32.397Z,64.33
2018-04-12T11:13:59.982Z,63.54
2018-04-12T11:16:27.510Z,63.47
2018-04-12T11:18:55.062Z,62.63
2018-04-12T11:21:22.605Z,62.43
2018-04-12T11:23:50.165Z,61.79
2018-04-12T11:26:17.693Z,62.17
2018-04-12T11:28:45.242Z,61.84
2018-04-12T11:31:12.871Z,61.05
2018-04-12T11:33:40.720Z,61.62
2018-04-12T11:36:08.287Z,62.17
2018-04-12T11:38:35.827Z,61.79
2018-04-12T11:41:03.428Z,61.66
2018-04-12T11:43:31.084Z,61.29
2018-04-12T11:45:58.648Z,61.63
2018-04-12T11:48:26.291Z,61.42
2018-04-12T11:50:53.813Z,62.69
2018-04-12T11:53:21.375Z,61.08
2018-04-12T11:55:48.924Z,60.91
2018-04-12T11:58:16.494Z,62.52
2018-04-12T12:00:44.022Z,62.17
2018-04-12T12:03:11.651Z,62.38
2018-04-12T12:05:39.174Z,61.85
2018-04-12T12:08:06.730Z,61.82
2018-04-12T12:10:34.258Z,61.82
2018-04-12T12:13:01.887Z,62.32
2018-04-12T12:15:29.457Z,63.51
2018-04-12T12:17:57.012Z,64.89
2018-04-12T12:20:24.536Z,62.46
2018-04-12T12:22:52.126Z,62.25
2018-04-12T12:25:19.644Z,64.29
2018-04-12T12:27:47.246Z,63.09
2018-04-12T12:30:14.804Z,62.53
2018-04-12T12:32:42.327Z,61.39
2018-04-12T12:35:09.905Z,60.54
2018-04-12T12:37:37.430Z,59.46
2018-04-12T12:40:04.970Z,59.79
2018-04-12T12:42:32.486Z,59.69
2018-04-12T12:45:00.058Z,60.90
2018-04-12T12:47:27.616Z,59.69
2018-04-12T12:49:55.193Z,58.26
2018-04-12T12:52:22.705Z,57.45
2018-04-12T12:54:50.302Z,59.17
2018-04-12T12:57:18.002Z,60.64
2018-04-12T12:59:45.577Z,59.38
2018-04-12T13:02:13.184Z,56.76
2018-04-12T13:04:41.767Z,60.82
2018-04-12T13:07:09.338Z,59.99
2018-04-12T13:09:36.885Z,61.36
2018-04-12T13:12:06.459Z,58.26
2018-04-12T13:14:34.069Z,60.80
2018-04-12T13:17:01.614Z,59.13
2018-04-12T13:19:29.277Z,59.24
2018-04-12T13:21:56.798Z,58.02
2018-04-12T13:24:24.753Z,57.47
2018-04-12T13:26:56.859Z,58.00
2018-04-12T13:29:26.836Z,57.76
2018-04-12T13:31:58.055Z,59.40
2018-04-12T13:34:26.033Z,57.97
2018-04-12T13:36:53.583Z,59.00
2018-04-12T13:39:24.196Z,58.64
2018-04-12T13:41:53.688Z,56.45
2018-04-12T13:44:23.625Z,58.74
2018-04-12T13:49:27.227Z,58.03
2018-04-12T13:51:58.108Z,57.94
2018-04-12T13:54:26.901Z,56.87
2018-04-12T13:56:55.550Z,56.70
2018-04-12T13:59:23.804Z,57.46
2018-04-12T14:01:54.216Z,55.77
2018-04-12T14:04:21.935Z,54.80
2018-04-12T14:06:49.565Z,55.31
2018-04-12T14:09:17.122Z,55.13
2018-04-12T14:11:44.682Z,55.48
2018-04-12T14:14:15.642Z,58.31
2018-04-12T14:16:45.775Z,54.76
2018-04-12T14:19:18.534Z,54.63
2018-04-12T14:21:50.972Z,55.20
2018-04-12T14:24:18.701Z,53.60
2018-04-12T14:26:46.332Z,54.72
2018-04-12T14:29:16.445Z,53.15
2018-04-12T14:31:46.128Z,53.66
2018-04-12T14:34:15.995Z,53.55
2018-04-12T14:36:45.100Z,54.88
2018-04-12T14:39:15.139Z,55.23
2018-04-12T14:41:46.206Z,52.77
2018-04-12T14:44:16.940Z,50.16
2018-04-12T14:46:46.999Z,48.94
2018-04-12T14:49:17.025Z,49.58
2018-04-12T14:51:47.160Z,50.54
2018-04-12T14:54:19.152Z,49.68
2018-04-12T14:56:48.130Z,51.00
2018-04-12T14:59:18.531Z,49.80
2018-04-12T15:01:49.258Z,49.65
2018-04-12T15:04:19.372Z,50.22
2018-04-12T15:06:52.844Z,48.71
2018-04-12T15:09:22.739Z,47.70
2018-04-12T15:11:53.676Z,48.71
2018-04-12T15:14:24.695Z,47.67
2018-04-12T15:16:56.091Z,47.15
2018-04-12T15:19:26.906Z,46.86
2018-04-12T15:21:57.957Z,46.11
2018-04-12T15:24:27.903Z,47.33
2018-04-12T15:26:56.246Z,46.53
2018-04-12T15:29:23.931Z,46.03
2018-04-12T15:31:52.996Z,45.20
2018-04-12T15:36:59.296Z,45.50
2018-04-12T15:39:26.895Z,44.65
2018-04-12T15:41:54.508Z,43.79
2018-04-12T15:44:22.074Z,43.39
2018-04-12T15:46:49.806Z,41.97
2018-04-12T15:49:17.330Z,42.68
2018-04-12T15:51:44.960Z,42.62
2018-04-12T15:54:14.706Z,44.20
2018-04-12T15:56:47.392Z,43.13
2018-04-12T15:59:15.933Z,41.31
2018-04-12T16:01:46.273Z,39.80
2018-04-12T16:04:17.442Z,41.79
2018-04-12T16:06:45.853Z,42.25
2018-04-12T16:09:16.245Z,42.06
2018-04-12T16:11:44.525Z,45.75
2018-04-12T16:14:13.384Z,46.21
2018-04-12T16:16:42.889Z,47.09
2018-04-12T16:19:10.777Z,44.92
2018-04-12T16:21:39.129Z,45.96
2018-04-12T16:24:06.889Z,44.62
2018-04-12T16:26:34.486Z,43.54
2018-04-12T16:29:02.191Z,44.87
2018-04-12T16:31:33.762Z,45.64
2018-04-12T16:34:02.450Z,46.63
2018-04-12T16:36:29.974Z,45.23
2018-04-12T16:38:57.554Z,42.17
2018-04-12T16:41:28.717Z,42.96
2018-04-12T16:43:58.100Z,43.47
2018-04-12T16:46:29.552Z,42.64
2018-04-12T16:49:04.110Z,41.92
2018-04-12T16:51:36.051Z,43.40
2018-04-12T16:54:08.428Z,42.76
2018-04-12T16:56:40.041Z,44.21
2018-04-12T16:59:18.065Z,44.21
2018-04-12T17:01:50.087Z,44.04
2018-04-12T17:07:02.722Z,44.38
2018-04-12T17:09:34.485Z,45.19
2018-04-12T17:14:46.184Z,41.73
2018-04-12T17:17:18.695Z,43.34
2018-04-12T17:19:55.719Z,43.66
2018-04-12T17:22:37.942Z,44.49
2018-04-12T17:25:10.599Z,41.63
2018-04-12T17:27:45.141Z,41.75
2018-04-12T17:30:20.147Z,39.49
2018-04-12T17:32:56.614Z,40.03
2018-04-12T17:35:29.347Z,39.68
2018-04-12T17:38:02.459Z,39.88
2018-04-12T17:40:36.015Z,38.38
2018-04-12T17:43:13.531Z,41.41
2018-04-12T17:45:47.373Z,38.90
2018-04-12T17:48:22.719Z,41.27
2018-04-12T17:50:56.280Z,41.03
2018-04-12T17:53:31.165Z,40.47
2018-04-12T17:56:03.578Z,41.88
2018-04-12T17:58:37.155Z,42.22
2018-04-12T18:03:45.982Z,43.45
2018-04-12T18:06:25.105Z,43.53
2018-04-12T18:09:00.338Z,44.01
2018-04-12T18:11:36.992Z,43.40
2018-04-12T18:14:10.949Z,44.52
2018-04-12T18:16:44.954Z,45.62
2018-04-12T18:19:20.506Z,45.67
2018-04-12T18:21:53.457Z,46.14
2018-04-12T18:24:26.709Z,46.97
2018-04-12T18:26:59.602Z,47.71
2018-04-12T18:29:32.726Z,48.10
2018-04-12T18:32:06.062Z,48.43
2018-04-12T18:34:37.156Z,49.91
2018-04-12T18:37:10.859Z,50.94
2018-04-12T18:39:43.527Z,50.83
2018-04-12T18:44:58.643Z,51.50
2018-04-12T18:47:34.350Z,51.72
2018-04-12T18:52:42.330Z,52.40
2018-04-12T18:55:14.228Z,52.45
2018-04-12T18:57:47.820Z,53.05
2018-04-12T19:00:20.877Z,53.30
2018-04-12T19:02:53.922Z,54.75
2018-04-12T19:08:07.359Z,55.17
2018-04-12T19:10:39.699Z,54.67
2018-04-12T19:13:12.043Z,55.17
2018-04-12T19:15:48.903Z,54.75
2018-04-12T19:18:18.699Z,54.72
2018-04-12T19:20:46.702Z,54.47
2018-04-12T19:23:14.258Z,55.57
2018-04-12T19:25:41.885Z,56.42
2018-04-12T19:28:09.429Z,58.38
2018-04-12T19:30:37.043Z,60.74
2018-04-12T19:33:04.607Z,62.83
2018-04-12T19:35:32.735Z,62.82
2018-04-12T19:38:00.366Z,63.51
2018-04-12T19:40:29.926Z,63.01
2018-04-12T19:42:57.523Z,63.96
2018-04-12T19:45:25.099Z,65.88
2018-04-12T19:47:53.494Z,64.89
2018-04-12T19:50:21.053Z,64.39
2018-04-12T19:52:48.556Z,63.62
2018-04-12T19:55:16.109Z,64.51
2018-04-12T19:57:43.633Z,65.64
2018-04-12T20:00:11.186Z,65.67
2018-04-12T20:02:38.713Z,65.79
2018-04-12T20:05:06.280Z,65.86
2018-04-12T20:07:33.811Z,65.57
2018-04-12T20:10:04.843Z,66.28
2018-04-12T20:12:32.617Z,67.86
2018-04-12T20:15:00.177Z,68.85
2018-04-12T20:17:27.709Z,68.52
2018-04-12T20:19:55.428Z,69.13
2018-04-12T20:22:23.702Z,68.38
2018-04-12T20:24:51.361Z,67.37
2018-04-12T20:27:18.889Z,68.30
2018-04-12T20:29:46.434Z,67.83
2018-04-12T20:32:13.964Z,67.75
2018-04-12T20:34:41.541Z,68.55
2018-04-12T20:37:09.069Z,68.59
2018-04-12T20:39:36.659Z,68.29
2018-04-12T20:42:04.173Z,69.20
2018-04-12T20:44:31.727Z,69.31
2018-04-12T20:46:59.254Z,69.96
2018-04-12T20:49:26.831Z,70.64
2018-04-12T20:51:54.359Z,71.45
2018-04-12T20:54:21.885Z,70.33
2018-04-12T20:56:49.437Z,70.29
2018-04-12T20:59:16.966Z,69.91
2018-04-12T21:01:44.539Z,69.62
2018-04-12T21:04:12.070Z,70.27
2018-04-12T21:06:39.606Z,70.70
2018-04-12T21:09:07.202Z,72.12
2018-04-12T21:11:34.749Z,72.60
2018-04-12T21:14:02.282Z,74.59
2018-04-12T21:16:29.883Z,73.50
2018-04-12T21:18:57.406Z,73.53
2018-04-12T21:21:24.961Z,73.85
2018-04-12T21:23:53.357Z,73.80
2018-04-12T21:26:21.168Z,73.51
2018-04-12T21:28:48.817Z,73.28
2018-04-12T21:31:16.368Z,73.46
2018-04-12T21:33:43.927Z,74.85
2018-04-12T21:36:14.594Z,74.23
2018-04-12T21:38:43.192Z,73.68
2018-04-12T21:41:11.280Z,74.41
2018-04-12T21:43:39.344Z,73.75
2018-04-12T21:46:08.233Z,73.95
2018-04-12T21:48:37.887Z,74.77
2018-04-12T21:51:06.583Z,75.20
2018-04-12T21:53:34.214Z,74.77
2018-04-12T21:56:02.225Z,74.60
2018-04-12T21:58:31.773Z,74.79
2018-04-12T22:01:00.121Z,74.83
2018-04-12T22:03:29.194Z,74.67
2018-04-12T22:05:56.854Z,74.35
2018-04-12T22:08:24.609Z,74.42
2018-04-12T22:10:53.000Z,73.87
2018-04-12T22:13:21.595Z,74.88
2018-04-12T22:15:49.892Z,76.31
2018-04-12T22:18:17.414Z,77.80
2018-04-12T22:20:45.986Z,76.54
2018-04-12T22:23:13.513Z,76.55
2018-04-12T22:25:41.119Z,74.99
2018-04-12T22:28:08.671Z,75.39
2018-04-12T22:30:39.474Z,76.87
2018-04-12T22:33:06.999Z,77.21
2018-04-12T22:35:34.575Z,77.07
2018-04-12T22:38:02.156Z,77.12
2018-04-12T22:40:29.743Z,77.35
2018-04-12T22:42:57.408Z,77.69
2018-04-12T22:45:24.943Z,78.04
2018-04-12T22:47:52.534Z,77.92
2018-04-12T22:50:20.164Z,79.09
2018-04-12T22:52:47.755Z,77.93
2018-04-12T22:55:16.126Z,77.38
2018-04-12T22:57:43.688Z,76.89
2018-04-12T23:00:11.251Z,77.19
2018-04-12T23:02:38.804Z,77.73
2018-04-12T23:05:06.334Z,78.09
2018-04-12T23:07:33.882Z,78.21
2018-04-12T23:10:01.409Z,78.17
2018-04-12T23:12:28.966Z,77.87
2018-04-12T23:14:56.514Z,78.77
2018-04-12T23:17:24.067Z,78.15
2018-04-12T23:19:51.596Z,77.71
2018-04-12T23:22:19.178Z,78.08
2018-04-12T23:24:46.738Z,77.91
2018-04-12T23:27:14.297Z,78.04
2018-04-12T23:29:41.856Z,79.57
2018-04-12T23:32:09.425Z,79.54
2018-04-12T23:34:36.984Z,79.41
2018-04-12T23:37:04.637Z,79.08
2018-04-12T23:39:32.161Z,78.16
2018-04-12T23:41:59.716Z,79.14
2018-04-12T23:44:27.242Z,80.24
2018-04-12T23:46:54.796Z,79.21
2018-04-12T23:49:22.295Z,79.99
2018-04-12T23:51:49.849Z,82.00
2018-04-12T23:54:17.397Z,80.07
2018-04-12T23:56:44.954Z,79.84
2018-04-12T23:59:12.572Z,79.20
